createdAt,value
2022-10-14T00:00:27.717Z,14.27
2022-10-14T00:01:59.285Z,14.25
2022-10-14T00:03:30.744Z,14.53
2022-10-14T00:05:02.224Z,15.15
2022-10-14T00:06:33.871Z,14.90
2022-10-14T00:08:05.112Z,14.49
2022-10-14T00:09:36.400Z,14.47
2022-10-14T00:11:07.935Z,14.40
2022-10-14T00:12:39.637Z,13.93
2022-10-14T00:14:10.980Z,13.46
2022-10-14T00:15:42.294Z,13.68
2022-10-14T00:17:13.713Z,13.36
2022-10-14T00:18:45.017Z,14.08
2022-10-14T00:20:16.402Z,13.73
2022-10-14T00:21:47.760Z,14.73
2022-10-14T00:23:19.315Z,13.92
2022-10-14T00:24:50.692Z,13.89
2022-10-14T00:26:27.055Z,13.77
2022-10-14T00:27:58.517Z,13.98
2022-10-14T00:29:30.177Z,13.76
2022-10-14T00:31:01.840Z,13.71
2022-10-14T00:32:33.613Z,13.31
2022-10-14T00:34:04.926Z,13.37
2022-10-14T00:35:36.383Z,13.26
2022-10-14T00:37:07.673Z,12.96
2022-10-14T00:38:39.679Z,13.40
2022-10-14T00:40:11.113Z,13.30
2022-10-14T00:41:42.399Z,13.69
2022-10-14T00:43:13.936Z,13.70
2022-10-14T00:44:45.555Z,13.31
2022-10-14T00:46:17.035Z,13.86
2022-10-14T00:47:48.729Z,13.94
2022-10-14T00:49:20.022Z,13.76
2022-10-14T00:51:06.605Z,13.18
2022-10-14T00:52:37.902Z,13.47
2022-10-14T00:54:09.650Z,12.96
2022-10-14T00:55:41.002Z,13.06
2022-10-14T00:57:12.316Z,13.81
2022-10-14T00:58:43.742Z,13.37
2022-10-14T01:00:15.255Z,13.69
2022-10-14T01:01:46.564Z,13.59
2022-10-14T01:03:17.846Z,13.97
2022-10-14T01:04:49.297Z,13.80
2022-10-14T01:06:20.604Z,14.28
2022-10-14T01:07:51.932Z,13.72
2022-10-14T01:09:23.209Z,13.85
2022-10-14T01:10:54.654Z,13.85
2022-10-14T01:12:29.623Z,14.38
2022-10-14T01:14:01.608Z,13.81
2022-10-14T01:15:33.069Z,14.04
2022-10-14T01:17:04.631Z,14.24
2022-10-14T01:18:35.925Z,14.46
2022-10-14T01:20:07.462Z,14.06
2022-10-14T01:21:39.078Z,15.12
2022-10-14T01:23:10.509Z,14.67
2022-10-14T01:24:41.771Z,14.96
2022-10-14T01:26:13.323Z,15.39
2022-10-14T01:27:44.610Z,15.02
2022-10-14T01:29:16.393Z,15.94
2022-10-14T01:30:47.875Z,15.50
2022-10-14T01:32:19.855Z,15.34
2022-10-14T01:33:51.634Z,15.31
2022-10-14T01:35:23.296Z,15.35
2022-10-14T01:36:54.700Z,16.06
2022-10-14T01:38:26.160Z,15.93
2022-10-14T01:39:57.541Z,16.08
2022-10-14T01:41:28.936Z,16.17
2022-10-14T01:43:00.591Z,15.53
2022-10-14T01:44:31.862Z,15.82
2022-10-14T01:46:03.406Z,16.03
2022-10-14T01:47:35.972Z,15.58
2022-10-14T01:49:07.416Z,15.16
2022-10-14T01:50:38.749Z,15.17
2022-10-14T01:52:10.041Z,15.29
2022-10-14T01:53:41.554Z,15.86
2022-10-14T01:55:13.003Z,15.42
2022-10-14T01:56:44.326Z,15.42
2022-10-14T01:58:15.980Z,14.84
2022-10-14T01:59:47.370Z,14.95
2022-10-14T02:01:18.697Z,15.01
2022-10-14T02:02:50.315Z,15.06
2022-10-14T02:04:21.675Z,14.95
2022-10-14T02:05:53.233Z,14.70
2022-10-14T02:07:25.221Z,14.59
2022-10-14T02:08:56.693Z,14.66
2022-10-14T02:10:28.250Z,15.00
2022-10-14T02:11:59.707Z,14.30
2022-10-14T02:13:31.167Z,14.14
2022-10-14T02:15:02.625Z,13.66
2022-10-14T02:16:33.929Z,14.49
2022-10-14T02:18:05.795Z,14.71
2022-10-14T02:19:37.566Z,14.23
2022-10-14T02:21:09.012Z,12.58
2022-10-14T02:22:40.478Z,11.49
2022-10-14T02:24:11.936Z,12.20
2022-10-14T02:25:43.194Z,12.07
2022-10-14T02:27:14.470Z,11.88
2022-10-14T02:28:46.049Z,12.13
2022-10-14T02:30:17.467Z,12.45
2022-10-14T02:31:49.305Z,11.65
2022-10-14T02:33:20.783Z,11.05
2022-10-14T02:34:52.149Z,11.42
2022-10-14T02:36:23.522Z,11.52
2022-10-14T02:37:55.182Z,11.23
2022-10-14T02:39:26.535Z,11.01
2022-10-14T02:40:58.099Z,10.82
2022-10-14T02:42:29.528Z,11.42
2022-10-14T02:44:01.069Z,10.77
2022-10-14T02:45:32.443Z,10.47
2022-10-14T02:47:03.661Z,10.81
2022-10-14T02:48:35.268Z,10.89
2022-10-14T02:50:06.927Z,10.84
2022-10-14T02:51:38.459Z,10.79
2022-10-14T02:53:10.035Z,10.33
2022-10-14T02:54:41.375Z,10.24
2022-10-14T02:56:12.719Z,10.27
2022-10-14T02:57:44.217Z,10.29
2022-10-14T02:59:15.741Z,10.63
2022-10-14T03:00:47.425Z,10.49
2022-10-14T03:02:19.461Z,10.44
2022-10-14T03:03:51.146Z,10.43
2022-10-14T03:05:22.913Z,10.57
2022-10-14T03:06:54.260Z,10.91
2022-10-14T03:08:25.606Z,10.45
2022-10-14T03:09:57.077Z,10.35
2022-10-14T03:11:28.611Z,10.22
2022-10-14T03:13:00.302Z,10.35
2022-10-14T03:14:31.656Z,10.35
2022-10-14T03:16:03.215Z,10.73
2022-10-14T03:17:34.587Z,10.33
2022-10-14T03:19:06.367Z,10.50
2022-10-14T03:20:37.748Z,10.61
2022-10-14T03:22:09.877Z,10.83
2022-10-14T03:23:41.249Z,10.80
2022-10-14T03:25:12.828Z,10.62
2022-10-14T03:26:44.417Z,11.05
2022-10-14T03:28:16.404Z,10.57
2022-10-14T03:29:48.155Z,11.05
2022-10-14T03:31:19.551Z,10.85
2022-10-14T03:32:51.027Z,10.77
2022-10-14T03:34:22.501Z,11.01
2022-10-14T03:35:53.821Z,10.51
2022-10-14T03:37:25.323Z,10.51
2022-10-14T03:38:56.638Z,10.54
2022-10-14T03:40:27.974Z,9.93
2022-10-14T03:41:59.335Z,10.15
2022-10-14T03:43:30.615Z,10.05
2022-10-14T03:45:02.041Z,10.26
2022-10-14T03:46:33.942Z,9.73
2022-10-14T03:48:05.261Z,9.78
2022-10-14T03:49:36.677Z,9.55
2022-10-14T03:51:07.940Z,9.50
2022-10-14T03:52:42.547Z,9.63
2022-10-14T03:54:18.225Z,9.34
2022-10-14T03:55:49.684Z,9.28
2022-10-14T03:57:21.433Z,9.00
2022-10-14T03:58:52.845Z,9.32
2022-10-14T04:00:24.487Z,9.31
2022-10-14T04:01:55.946Z,8.93
2022-10-14T04:03:27.537Z,9.91
2022-10-14T04:05:01.099Z,8.86
2022-10-14T04:06:32.777Z,8.82
2022-10-14T04:08:04.200Z,9.00
2022-10-14T04:09:35.606Z,9.02
2022-10-14T04:11:07.051Z,9.10
2022-10-14T04:12:38.350Z,8.65
2022-10-14T04:14:09.693Z,8.25
2022-10-14T04:15:40.974Z,8.66
2022-10-14T04:17:12.420Z,8.46
2022-10-14T04:18:43.788Z,8.57
2022-10-14T04:20:15.260Z,8.40
2022-10-14T04:21:46.541Z,8.33
2022-10-14T04:23:18.298Z,8.04
2022-10-14T04:24:49.669Z,7.51
2022-10-14T04:26:21.863Z,7.41
2022-10-14T04:27:53.317Z,7.60
2022-10-14T04:29:24.972Z,7.80
2022-10-14T04:30:56.587Z,7.69
2022-10-14T04:32:27.945Z,7.81
2022-10-14T04:33:59.653Z,7.31
2022-10-14T04:35:31.139Z,7.60
2022-10-14T04:37:02.925Z,7.65
2022-10-14T04:38:34.542Z,7.64
2022-10-14T04:40:05.789Z,7.40
2022-10-14T04:41:37.498Z,7.35
2022-10-14T04:43:08.929Z,6.96
2022-10-14T04:44:41.198Z,7.01
2022-10-14T04:46:12.867Z,7.43
2022-10-14T04:47:48.466Z,6.89
2022-10-14T04:49:20.738Z,6.51
2022-10-14T04:50:52.140Z,6.95
2022-10-14T04:52:23.972Z,7.09
2022-10-14T04:53:55.587Z,6.43
2022-10-14T04:55:27.231Z,6.24
2022-10-14T04:56:58.634Z,6.55
2022-10-14T04:58:29.979Z,6.34
2022-10-14T05:00:01.556Z,6.37
2022-10-14T05:01:34.265Z,5.88
2022-10-14T05:03:05.673Z,6.00
2022-10-14T05:04:37.106Z,5.74
2022-10-14T05:06:08.544Z,6.14
2022-10-14T05:07:39.952Z,5.76
2022-10-14T05:09:11.403Z,5.38
2022-10-14T05:10:43.002Z,5.61
2022-10-14T05:12:14.286Z,5.67
2022-10-14T05:13:45.869Z,5.59
2022-10-14T05:15:17.527Z,5.64
2022-10-14T05:16:49.865Z,6.02
2022-10-14T05:18:21.283Z,5.89
2022-10-14T05:19:52.652Z,5.62
2022-10-14T05:21:23.920Z,5.44
2022-10-14T05:22:55.421Z,5.49
2022-10-14T05:24:28.152Z,5.55
2022-10-14T05:25:59.845Z,5.80
2022-10-14T05:27:31.204Z,5.46
2022-10-14T05:29:02.547Z,5.84
2022-10-14T05:30:35.008Z,5.62
2022-10-14T05:32:06.513Z,5.57
2022-10-14T05:33:37.990Z,5.54
2022-10-14T05:35:09.246Z,5.77
2022-10-14T05:36:40.576Z,5.75
2022-10-14T05:38:12.105Z,5.90
2022-10-14T05:39:43.401Z,5.71
2022-10-14T05:41:14.879Z,5.45
2022-10-14T05:42:46.387Z,5.80
2022-10-14T05:44:18.031Z,6.06
2022-10-14T05:45:49.682Z,6.42
2022-10-14T05:47:21.360Z,6.10
2022-10-14T05:48:52.841Z,6.16
2022-10-14T05:50:24.375Z,5.73
2022-10-14T05:51:55.821Z,6.26
2022-10-14T05:53:27.676Z,6.41
2022-10-14T05:54:59.217Z,5.93
2022-10-14T05:56:30.786Z,5.92
2022-10-14T05:58:02.142Z,6.02
2022-10-14T05:59:33.544Z,6.02
2022-10-14T06:01:04.930Z,6.14
2022-10-14T06:02:36.309Z,5.65
2022-10-14T06:04:07.752Z,5.83
2022-10-14T06:05:39.358Z,5.66
2022-10-14T06:07:10.821Z,5.80
2022-10-14T06:08:42.516Z,5.72
2022-10-14T06:10:13.851Z,5.70
2022-10-14T06:11:45.197Z,5.76
2022-10-14T06:13:21.769Z,6.20
2022-10-14T06:14:53.064Z,6.49
2022-10-14T06:16:29.570Z,6.34
2022-10-14T06:18:00.951Z,5.96
2022-10-14T06:19:32.539Z,5.88
2022-10-14T06:21:04.092Z,6.54
2022-10-14T06:22:35.390Z,5.99
2022-10-14T06:24:12.968Z,5.22
2022-10-14T06:25:44.273Z,5.84
2022-10-14T06:27:15.966Z,5.54
2022-10-14T06:28:47.410Z,5.91
2022-10-14T06:30:18.823Z,6.29
2022-10-14T06:31:50.213Z,6.16
2022-10-14T06:33:21.580Z,6.22
2022-10-14T06:34:53.005Z,5.62
2022-10-14T06:36:24.556Z,5.61
2022-10-14T06:37:56.070Z,5.83
2022-10-14T06:39:27.640Z,6.12
2022-10-14T06:40:59.284Z,5.61
2022-10-14T06:42:30.803Z,5.45
2022-10-14T06:44:02.135Z,5.18
2022-10-14T06:45:33.622Z,5.18
2022-10-14T06:47:05.033Z,5.32
2022-10-14T06:48:36.540Z,5.24
2022-10-14T06:50:08.036Z,5.19
2022-10-14T06:51:39.889Z,5.26
2022-10-14T06:53:11.250Z,5.12
2022-10-14T06:54:48.051Z,4.87
2022-10-14T06:56:19.958Z,4.86
2022-10-14T06:57:51.306Z,4.59
2022-10-14T06:59:22.763Z,5.50
2022-10-14T07:00:54.433Z,5.17
2022-10-14T07:02:26.027Z,4.85
2022-10-14T07:03:57.384Z,4.77
2022-10-14T07:05:28.708Z,4.74
2022-10-14T07:07:00.083Z,5.12
2022-10-14T07:08:31.538Z,5.02
2022-10-14T07:10:02.973Z,4.76
2022-10-14T07:11:34.386Z,5.08
2022-10-14T07:13:05.858Z,5.31
2022-10-14T07:14:37.475Z,4.78
2022-10-14T07:16:09.035Z,4.61
2022-10-14T07:17:40.360Z,4.66
2022-10-14T07:19:11.862Z,4.43
2022-10-14T07:20:43.514Z,4.13
2022-10-14T07:22:15.570Z,4.28
2022-10-14T07:23:47.060Z,4.67
2022-10-14T07:25:18.554Z,4.90
2022-10-14T07:26:50.076Z,4.64
2022-10-14T07:30:26.112Z,4.56
2022-10-14T07:31:57.476Z,4.99
2022-10-14T07:33:28.942Z,4.54
2022-10-14T07:35:00.514Z,3.72
2022-10-14T07:36:37.159Z,3.84
2022-10-14T07:38:18.724Z,3.58
2022-10-14T07:39:50.183Z,3.49
2022-10-14T07:41:21.525Z,3.69
2022-10-14T07:42:52.998Z,3.78
2022-10-14T07:44:29.470Z,3.72
2022-10-14T07:46:00.879Z,3.86
2022-10-14T07:47:37.313Z,3.86
2022-10-14T07:49:08.646Z,3.83
2022-10-14T07:50:40.092Z,3.87
2022-10-14T07:52:11.968Z,3.68
2022-10-14T07:53:48.435Z,3.41
2022-10-14T07:55:20.125Z,3.49
2022-10-14T07:56:51.466Z,3.66
2022-10-14T07:58:22.932Z,3.60
2022-10-14T07:59:54.386Z,3.75
2022-10-14T08:01:31.001Z,3.54
2022-10-14T08:03:02.721Z,3.48
2022-10-14T08:04:34.087Z,3.41
2022-10-14T08:06:30.176Z,3.57
2022-10-14T08:08:28.706Z,3.39
2022-10-14T08:10:05.117Z,3.20
2022-10-14T08:11:36.547Z,3.31
2022-10-14T08:13:13.039Z,3.22
2022-10-14T08:14:44.389Z,2.99
2022-10-14T08:16:36.218Z,3.24
2022-10-14T08:18:07.699Z,3.19
2022-10-14T08:19:39.039Z,3.30
2022-10-14T08:21:25.454Z,3.14
2022-10-14T08:22:56.901Z,3.09
2022-10-14T08:24:39.072Z,2.86
2022-10-14T08:26:10.383Z,2.97
2022-10-14T08:27:42.156Z,2.62
2022-10-14T08:29:13.523Z,2.81
2022-10-14T08:30:44.802Z,2.61
2022-10-14T08:32:17.553Z,2.64
2022-10-14T08:33:48.972Z,2.44
2022-10-14T08:35:20.499Z,2.65
2022-10-14T08:36:54.833Z,2.38
2022-10-14T08:38:41.688Z,2.23
2022-10-14T08:40:13.236Z,2.18
2022-10-14T08:41:45.830Z,2.14
2022-10-14T08:43:26.380Z,2.14
2022-10-14T08:44:57.793Z,2.31
2022-10-14T08:46:29.193Z,2.58
2022-10-14T08:48:00.604Z,2.09
2022-10-14T08:49:31.928Z,2.00
2022-10-14T08:51:03.207Z,1.90
2022-10-14T08:52:37.397Z,2.07
2022-10-14T08:54:09.150Z,2.06
2022-10-14T08:55:40.620Z,1.87
2022-10-14T08:57:12.107Z,1.76
2022-10-14T08:58:43.531Z,1.99
2022-10-14T09:00:14.838Z,1.87
2022-10-14T09:01:46.523Z,1.75
2022-10-14T09:03:17.841Z,1.59
2022-10-14T09:04:49.383Z,1.59
2022-10-14T09:06:20.756Z,1.65
2022-10-14T09:07:52.129Z,2.04
2022-10-14T09:09:23.703Z,1.78
2022-10-14T09:10:55.123Z,1.66
2022-10-14T09:12:26.519Z,1.51
2022-10-14T09:14:49.660Z,1.59
2022-10-14T09:16:23.446Z,1.45
2022-10-14T09:17:55.909Z,1.78
2022-10-14T09:19:27.359Z,1.46
2022-10-14T09:21:00.222Z,1.47
2022-10-14T09:22:31.874Z,1.43
2022-10-14T09:24:36.561Z,1.32
2022-10-14T09:26:08.351Z,1.31
2022-10-14T09:27:39.907Z,1.27
2022-10-14T09:29:11.339Z,1.21
2022-10-14T09:30:42.918Z,1.30
2022-10-14T09:32:14.415Z,1.16
2022-10-14T09:33:46.213Z,1.21
2022-10-14T09:35:17.694Z,1.13
2022-10-14T09:36:49.479Z,1.30
2022-10-14T09:38:20.952Z,1.10
2022-10-14T09:39:52.474Z,1.10
2022-10-14T09:41:24.072Z,1.07
2022-10-14T09:45:19.279Z,1.10
2022-10-14T09:46:50.925Z,1.00
2022-10-14T09:48:22.392Z,0.87
2022-10-14T09:49:54.048Z,0.89
2022-10-14T09:51:35.811Z,0.96
2022-10-14T09:53:10.854Z,0.96
2022-10-14T09:54:52.952Z,0.97
2022-10-14T09:56:56.941Z,0.91
2022-10-14T09:58:38.441Z,0.86
2022-10-14T10:00:10.039Z,0.86
2022-10-14T10:01:41.482Z,0.90
2022-10-14T10:03:27.948Z,0.79
2022-10-14T10:04:59.397Z,0.75
2022-10-14T10:06:30.861Z,0.83
2022-10-14T10:08:02.181Z,1.01
2022-10-14T10:09:33.531Z,0.81
2022-10-14T10:11:06.677Z,0.81
2022-10-14T10:12:38.564Z,0.89
2022-10-14T10:14:09.956Z,0.84
2022-10-14T10:15:41.420Z,0.78
2022-10-14T10:17:12.786Z,0.80
2022-10-14T10:18:44.201Z,0.73
2022-10-14T10:20:16.138Z,0.79
2022-10-14T10:21:57.596Z,0.96
2022-10-14T10:23:29.145Z,0.77
2022-10-14T10:25:00.666Z,0.70
2022-10-14T10:26:32.015Z,0.73
2022-10-14T10:28:03.431Z,0.67
2022-10-14T10:29:50.491Z,0.65
2022-10-14T10:31:32.332Z,0.70
2022-10-14T10:33:20.693Z,0.72
2022-10-14T10:34:52.340Z,0.82
2022-10-14T10:36:30.848Z,0.76
2022-10-14T10:38:02.193Z,0.79
2022-10-14T10:42:15.429Z,0.78
2022-10-14T10:43:53.223Z,0.82
2022-10-14T10:45:24.794Z,0.78
2022-10-14T10:46:56.447Z,0.92
2022-10-14T10:48:27.959Z,0.85
2022-10-14T10:50:14.518Z,0.82
2022-10-14T10:51:46.300Z,0.84
2022-10-14T10:54:21.422Z,0.79
2022-10-14T10:55:53.382Z,0.92
2022-10-14T10:57:27.890Z,0.87
2022-10-14T10:58:59.531Z,0.91
2022-10-14T11:00:41.229Z,0.96
2022-10-14T11:02:18.308Z,0.92
2022-10-14T11:03:49.955Z,0.97
2022-10-14T11:05:21.493Z,1.12
2022-10-14T11:09:05.080Z,1.05
2022-10-14T11:10:46.665Z,1.16
2022-10-14T11:12:30.500Z,1.11
2022-10-14T11:14:02.096Z,1.18
2022-10-14T11:15:39.456Z,1.07
2022-10-14T11:17:10.909Z,1.11
2022-10-14T11:18:43.068Z,1.16
2022-10-14T11:20:16.016Z,1.33
2022-10-14T11:21:47.926Z,1.62
2022-10-14T11:23:19.604Z,1.42
2022-10-14T11:25:01.271Z,1.52
2022-10-14T11:28:04.770Z,1.46
2022-10-14T11:29:36.120Z,1.63
2022-10-14T11:31:07.655Z,1.63
2022-10-14T11:32:39.278Z,1.76
2022-10-14T11:34:15.667Z,1.70
2022-10-14T11:35:47.169Z,2.94
2022-10-14T11:37:18.751Z,2.80
2022-10-14T11:38:50.165Z,3.34
2022-10-14T11:40:22.062Z,2.70
2022-10-14T11:41:53.757Z,2.32
2022-10-14T11:43:40.517Z,2.98
2022-10-14T11:45:12.932Z,3.67
2022-10-14T11:46:45.250Z,2.88
2022-10-14T11:48:16.720Z,2.70
2022-10-14T11:49:48.138Z,2.89
2022-10-14T11:51:19.472Z,2.93
2022-10-14T11:52:50.916Z,3.44
2022-10-14T11:54:22.633Z,3.20
2022-10-14T11:55:54.146Z,3.10
2022-10-14T11:57:25.564Z,3.33
2022-10-14T11:58:57.297Z,3.36
2022-10-14T12:00:28.688Z,3.70
2022-10-14T12:02:00.117Z,3.74
2022-10-14T12:04:19.507Z,3.74
2022-10-14T12:05:51.484Z,4.23
2022-10-14T12:07:23.141Z,4.67
2022-10-14T12:08:54.913Z,4.08
2022-10-14T12:10:27.667Z,3.92
2022-10-14T12:11:59.404Z,4.18
2022-10-14T12:13:31.063Z,4.07
2022-10-14T12:15:02.912Z,4.21
2022-10-14T12:16:34.700Z,4.08
2022-10-14T12:18:06.696Z,4.49
2022-10-14T12:19:38.304Z,4.28
2022-10-14T12:21:09.919Z,4.62
2022-10-14T12:23:03.493Z,6.19
2022-10-14T12:24:45.552Z,6.25
2022-10-14T12:26:17.383Z,4.82
2022-10-14T12:27:49.461Z,4.59
2022-10-14T12:29:26.021Z,4.54
2022-10-14T12:30:57.615Z,4.94
2022-10-14T12:32:39.218Z,4.54
2022-10-14T12:34:26.404Z,4.85
2022-10-14T12:35:57.723Z,4.75
2022-10-14T12:37:31.632Z,4.71
2022-10-14T12:39:03.984Z,4.62
2022-10-14T12:40:35.442Z,4.70
2022-10-14T12:42:06.954Z,4.56
2022-10-14T12:43:38.417Z,4.48
2022-10-14T12:45:09.916Z,4.62
2022-10-14T12:46:46.379Z,4.58
2022-10-14T12:48:17.911Z,4.63
2022-10-14T12:49:49.578Z,4.73
2022-10-14T12:51:21.436Z,4.96
2022-10-14T12:53:12.633Z,4.81
2022-10-14T12:54:44.429Z,4.96
2022-10-14T12:56:21.056Z,4.97
2022-10-14T12:57:52.827Z,4.61
2022-10-14T12:59:24.266Z,4.93
2022-10-14T13:00:56.052Z,5.22
2022-10-14T13:02:27.642Z,5.97
2022-10-14T13:03:59.157Z,6.38
2022-10-14T13:05:30.698Z,5.84
2022-10-14T13:07:07.478Z,5.54
2022-10-14T13:08:43.412Z,5.44
2022-10-14T13:10:14.891Z,5.71
2022-10-14T13:11:46.208Z,5.65
2022-10-14T13:13:18.148Z,5.77
2022-10-14T13:14:49.665Z,6.44
2022-10-14T13:16:49.816Z,5.94
2022-10-14T13:18:21.214Z,6.33
2022-10-14T13:19:52.813Z,6.00
2022-10-14T13:21:24.197Z,5.85
2022-10-14T13:23:05.675Z,5.49
2022-10-14T13:24:37.085Z,5.79
2022-10-14T13:26:24.969Z,5.56
2022-10-14T13:28:02.325Z,5.63
2022-10-14T13:29:45.052Z,5.42
2022-10-14T13:31:26.420Z,5.39
2022-10-14T13:32:57.968Z,5.01
2022-10-14T13:34:51.225Z,5.14
2022-10-14T13:36:35.144Z,4.97
2022-10-14T13:38:06.489Z,4.86
2022-10-14T13:39:39.607Z,5.08
2022-10-14T13:41:11.183Z,4.75
2022-10-14T13:42:52.769Z,4.50
2022-10-14T13:44:49.156Z,6.43
2022-10-14T13:46:38.462Z,6.38
2022-10-14T13:48:09.915Z,5.28
2022-10-14T13:49:41.217Z,4.49
2022-10-14T13:51:24.536Z,4.06
2022-10-14T13:53:12.047Z,4.02
2022-10-14T13:55:23.639Z,3.98
2022-10-14T13:59:07.990Z,3.84
2022-10-14T14:00:48.889Z,3.61
2022-10-14T14:02:20.677Z,3.49
2022-10-14T14:04:13.725Z,3.67
2022-10-14T14:05:45.337Z,3.62
2022-10-14T14:07:59.143Z,3.40
2022-10-14T14:10:16.018Z,3.26
2022-10-14T14:11:48.784Z,3.65
2022-10-14T14:13:30.557Z,7.07
2022-10-14T14:15:02.037Z,8.89
2022-10-14T14:16:33.554Z,4.71
2022-10-14T14:18:30.454Z,3.30
2022-10-14T14:20:09.743Z,3.11
2022-10-14T14:21:41.116Z,3.10
2022-10-14T14:23:48.550Z,3.15
2022-10-14T14:25:34.401Z,3.41
2022-10-14T14:27:30.045Z,3.42
2022-10-14T14:29:02.850Z,3.44
2022-10-14T14:30:34.473Z,2.76
2022-10-14T14:32:07.503Z,2.53
2022-10-14T14:33:40.102Z,2.78
2022-10-14T14:35:18.146Z,2.70
2022-10-14T14:36:57.896Z,2.70
2022-10-14T14:38:33.005Z,2.78
2022-10-14T14:40:05.052Z,3.23
2022-10-14T14:41:41.678Z,3.63
2022-10-14T14:43:20.859Z,3.12
2022-10-14T14:44:53.134Z,2.88
2022-10-14T14:46:25.067Z,2.80
2022-10-14T14:47:56.994Z,2.75
2022-10-14T14:49:28.842Z,2.79
2022-10-14T14:51:00.479Z,2.81
2022-10-14T14:52:32.429Z,2.69
2022-10-14T14:54:14.250Z,2.90
2022-10-14T14:55:46.081Z,2.78
2022-10-14T14:57:21.693Z,2.75
2022-10-14T14:58:59.013Z,2.77
2022-10-14T15:00:35.679Z,2.69
2022-10-14T15:02:07.173Z,2.67
2022-10-14T15:03:39.292Z,2.86
2022-10-14T15:05:50.720Z,2.87
2022-10-14T15:07:22.718Z,2.88
2022-10-14T15:08:59.214Z,2.77
2022-10-14T15:10:32.860Z,2.80
2022-10-14T15:12:04.530Z,4.45
2022-10-14T15:13:36.131Z,3.73
2022-10-14T15:15:08.422Z,2.68
2022-10-14T15:16:40.793Z,2.81
2022-10-14T15:18:12.485Z,2.76
2022-10-14T15:19:44.980Z,2.46
2022-10-14T15:21:31.466Z,2.62
2022-10-14T15:23:03.057Z,2.68
2022-10-14T15:24:59.405Z,2.97
2022-10-14T15:26:46.108Z,2.97
2022-10-14T15:28:22.491Z,2.90
2022-10-14T15:29:54.073Z,3.03
2022-10-14T15:31:40.482Z,3.01
2022-10-14T15:33:12.181Z,2.93
2022-10-14T15:34:43.514Z,2.84
2022-10-14T15:36:14.893Z,2.66
2022-10-14T15:37:46.414Z,2.60
2022-10-14T15:39:27.939Z,2.67
2022-10-14T15:41:09.278Z,3.15
2022-10-14T15:42:40.670Z,3.04
2022-10-14T15:44:12.064Z,2.96
2022-10-14T15:45:43.396Z,2.94
2022-10-14T15:47:14.971Z,3.71
2022-10-14T15:48:47.091Z,3.80
2022-10-14T15:50:18.655Z,3.42
2022-10-14T15:51:50.481Z,3.45
2022-10-14T15:53:28.482Z,2.81
2022-10-14T15:55:02.067Z,2.79
2022-10-14T15:56:33.597Z,2.52
2022-10-14T15:58:05.139Z,2.70
2022-10-14T15:59:37.070Z,2.76
2022-10-14T16:01:08.879Z,2.58
2022-10-14T16:02:40.392Z,2.92
2022-10-14T16:04:12.034Z,2.85
2022-10-14T16:05:43.658Z,2.70
2022-10-14T16:07:15.204Z,2.80
2022-10-14T16:08:46.626Z,2.71
2022-10-14T16:10:29.457Z,2.86
2022-10-14T16:12:04.130Z,2.76
2022-10-14T16:13:46.130Z,2.95
2022-10-14T16:15:47.851Z,2.69
2022-10-14T16:17:19.280Z,2.78
2022-10-14T16:18:50.665Z,2.87
2022-10-14T16:20:22.369Z,2.86
2022-10-14T16:22:03.980Z,2.79
2022-10-14T16:23:35.674Z,9.19
2022-10-14T16:25:07.137Z,9.40
2022-10-14T16:26:49.089Z,3.45
2022-10-14T16:28:20.993Z,3.21
2022-10-14T16:29:53.559Z,2.87
2022-10-14T16:31:30.425Z,2.89
2022-10-14T16:33:01.904Z,2.86
2022-10-14T16:34:33.589Z,2.81
2022-10-14T16:36:04.993Z,2.91
2022-10-14T16:37:36.297Z,3.08
2022-10-14T16:39:07.790Z,2.95
2022-10-14T16:40:39.539Z,2.98
2022-10-14T16:42:10.992Z,2.99
2022-10-14T16:43:47.688Z,3.39
2022-10-14T16:45:19.199Z,3.44
2022-10-14T16:46:55.682Z,3.60
2022-10-14T16:48:47.430Z,3.51
2022-10-14T16:50:19.327Z,3.43
2022-10-14T16:51:56.050Z,3.43
2022-10-14T16:53:27.592Z,3.47
2022-10-14T16:54:59.178Z,3.54
2022-10-14T16:56:30.687Z,3.61
2022-10-14T16:58:12.397Z,3.70
2022-10-14T16:59:43.824Z,3.51
2022-10-14T17:01:15.367Z,3.87
2022-10-14T17:02:46.807Z,4.06
2022-10-14T17:04:38.553Z,4.20
2022-10-14T17:06:10.052Z,4.16
2022-10-14T17:07:41.522Z,6.28
2022-10-14T17:09:27.939Z,5.59
2022-10-14T17:10:59.664Z,4.54
2022-10-14T17:12:41.057Z,4.60
2022-10-14T17:14:13.016Z,4.81
2022-10-14T17:15:44.477Z,4.86
2022-10-14T17:17:16.341Z,5.15
2022-10-14T17:20:20.533Z,5.73
2022-10-14T17:21:51.930Z,5.62
2022-10-14T17:23:23.635Z,5.71
2022-10-14T17:24:55.074Z,5.42
2022-10-14T17:26:26.462Z,5.59
2022-10-14T17:27:58.288Z,5.56
2022-10-14T17:29:29.777Z,5.71
2022-10-14T17:31:01.344Z,5.83
2022-10-14T17:32:33.231Z,5.93
2022-10-14T17:34:04.692Z,5.76
2022-10-14T17:35:36.355Z,5.85
2022-10-14T17:38:39.407Z,5.58
2022-10-14T17:40:10.865Z,6.25
2022-10-14T17:41:42.442Z,6.22
2022-10-14T17:43:14.187Z,6.55
2022-10-14T17:44:45.686Z,6.68
2022-10-14T17:46:17.012Z,6.74
2022-10-14T17:47:48.707Z,6.46
2022-10-14T17:49:20.385Z,7.00
2022-10-14T17:50:51.931Z,6.75
2022-10-14T17:52:43.521Z,6.53
2022-10-14T17:54:15.837Z,6.29
2022-10-14T17:55:47.616Z,6.70
2022-10-14T17:57:18.923Z,6.46
2022-10-14T17:59:13.796Z,6.73
2022-10-14T18:00:50.581Z,7.02
2022-10-14T18:02:22.084Z,6.71
2022-10-14T18:03:53.652Z,6.75
2022-10-14T18:05:25.142Z,6.71
2022-10-14T18:07:11.723Z,6.67
2022-10-14T18:08:48.244Z,6.70
2022-10-14T18:10:19.889Z,6.80
2022-10-14T18:12:09.196Z,6.56
2022-10-14T18:14:09.217Z,6.77
2022-10-14T18:15:40.845Z,6.93
2022-10-14T18:17:12.622Z,6.68
2022-10-14T18:18:44.796Z,6.85
2022-10-14T18:20:16.404Z,6.56
2022-10-14T18:21:47.909Z,6.80
2022-10-14T18:23:29.535Z,6.91
2022-10-14T18:25:00.909Z,8.16
2022-10-14T18:26:51.609Z,7.63
2022-10-14T18:28:23.393Z,8.29
2022-10-14T18:29:55.173Z,7.50
2022-10-14T18:31:26.805Z,7.87
2022-10-14T18:32:58.552Z,8.08
2022-10-14T18:34:30.527Z,7.21
2022-10-14T18:36:01.972Z,7.45
2022-10-14T18:37:52.288Z,7.41
2022-10-14T18:39:44.353Z,7.71
2022-10-14T18:41:16.403Z,8.24
2022-10-14T18:42:53.461Z,7.98
2022-10-14T18:44:25.530Z,8.20
2022-10-14T18:45:57.395Z,8.13
2022-10-14T18:47:29.049Z,8.10
2022-10-14T18:49:03.054Z,7.98
2022-10-14T18:50:34.338Z,8.01
2022-10-14T18:52:12.067Z,8.08
2022-10-14T18:53:43.628Z,8.56
2022-10-14T18:55:15.164Z,8.47
2022-10-14T18:56:46.870Z,8.61
2022-10-14T18:58:18.537Z,8.86
2022-10-14T18:59:50.209Z,8.59
2022-10-14T19:01:31.688Z,8.74
2022-10-14T19:03:21.992Z,8.68
2022-10-14T19:04:53.752Z,8.74
2022-10-14T19:06:25.674Z,8.73
2022-10-14T19:07:57.307Z,8.76
2022-10-14T19:09:28.853Z,8.95
2022-10-14T19:11:37.603Z,8.91
2022-10-14T19:13:09.777Z,8.90
2022-10-14T19:14:41.929Z,8.68
2022-10-14T19:16:14.107Z,9.18
2022-10-14T19:17:47.743Z,9.66
2022-10-14T19:19:20.579Z,10.59
2022-10-14T19:20:52.780Z,10.13
2022-10-14T19:22:24.877Z,9.56
2022-10-14T19:23:56.409Z,10.01
2022-10-14T19:25:27.893Z,9.77
2022-10-14T19:27:19.764Z,9.42
2022-10-14T19:28:51.783Z,9.87
2022-10-14T19:30:23.713Z,10.24
2022-10-14T19:31:55.467Z,10.32
2022-10-14T19:33:27.239Z,10.12
2022-10-14T19:35:00.128Z,10.30
2022-10-14T19:36:31.633Z,10.94
2022-10-14T19:38:03.249Z,10.26
2022-10-14T19:39:34.836Z,10.23
2022-10-14T19:41:06.563Z,10.04
2022-10-14T19:42:58.739Z,9.93
2022-10-14T19:44:30.208Z,9.64
2022-10-14T19:46:02.143Z,9.55
2022-10-14T19:47:33.834Z,11.37
2022-10-14T19:49:10.179Z,10.21
2022-10-14T19:50:41.749Z,10.70
2022-10-14T19:52:13.333Z,10.98
2022-10-14T19:53:44.744Z,9.86
2022-10-14T19:55:16.253Z,9.16
2022-10-14T19:56:47.813Z,9.42
2022-10-14T19:58:19.471Z,9.59
2022-10-14T19:59:51.216Z,9.95
2022-10-14T20:01:27.605Z,9.99
2022-10-14T20:02:59.167Z,10.02
2022-10-14T20:04:31.259Z,10.04
2022-10-14T20:06:03.055Z,10.61
2022-10-14T20:07:34.672Z,10.45
2022-10-14T20:09:11.331Z,10.93
2022-10-14T20:10:42.733Z,11.35
2022-10-14T20:13:05.502Z,10.50
2022-10-14T20:14:36.856Z,10.73
2022-10-14T20:16:08.142Z,10.03
2022-10-14T20:18:00.297Z,10.18
2022-10-14T20:19:31.730Z,10.92
2022-10-14T20:21:03.785Z,11.63
2022-10-14T20:22:35.436Z,10.91
2022-10-14T20:24:06.928Z,10.77
2022-10-14T20:25:38.497Z,10.43
2022-10-14T20:27:12.036Z,10.42
2022-10-14T20:28:43.788Z,10.47
2022-10-14T20:30:38.595Z,10.64
2022-10-14T20:32:10.589Z,10.25
2022-10-14T20:33:42.472Z,10.05
2022-10-14T20:35:15.095Z,10.19
2022-10-14T20:36:46.914Z,10.58
2022-10-14T20:38:18.700Z,10.08
2022-10-14T20:39:50.400Z,10.55
2022-10-14T20:41:22.089Z,10.44
2022-10-14T20:42:53.832Z,10.44
2022-10-14T20:44:25.491Z,10.26
2022-10-14T20:45:57.834Z,10.27
2022-10-14T20:47:29.186Z,9.98
2022-10-14T20:49:00.802Z,9.84
2022-10-14T20:50:39.704Z,10.37
2022-10-14T20:52:11.317Z,9.84
2022-10-14T20:53:42.781Z,10.63
2022-10-14T20:55:14.349Z,10.56
2022-10-14T20:56:47.013Z,10.99
2022-10-14T20:58:18.708Z,11.95